ADDS METAR Data INFO
IDs: Format: Raw Decoded Include TAF

Data at: 1849 UTC 17 Oct 2017

KGWO 171753Z AUTO 00000KT 10SM CLR 22/10 A3027 RMK AO2 SLP251 60000 T02170100 10217 20028 58016
KGWO 171653Z AUTO 08006KT 10SM CLR 21/09 A3029 RMK AO2 SLP256 T02060094
KGWO 171553Z AUTO 10009KT 10SM CLR 18/09 A3031 RMK AO2 SLP263 T01830089
KGWO 171453Z AUTO 08004KT 10SM CLR 15/08 A3032 RMK AO2 SLP267 60000 T01500083 51008
KGWO 171353Z AUTO 36005KT 10SM CLR 10/08 A3032 RMK AO2 SLP267 T01000083
KGWO 171253Z AUTO 02003KT 10SM CLR 06/05 A3030 RMK AO2 RAB14E16B27E38SNB16E27 SLP262 P0000 T00560050
KGWO 171231Z AUTO 02004KT 5SM -RA BR CLR 04/04 A3030 RMK AO2 RAB14E16B27SNB16E27 P0000 T00390039
KGWO 171218Z AUTO 01004KT 2SM -SN BR CLR 03/02 A3030 RMK AO2 VIS 1V4 RAB14E16SNB16 P0000 T00330022
KGWO 171208Z AUTO 00000KT 1/2SM FG CLR 03/02 A3030 RMK AO2 T00280022
KGWO 171153Z AUTO 00000KT 1 1/2SM BR CLR 03/03 A3030 RMK AO2 VIS 3/4V5 SLP259 60000 T00330033 10072 20033 53012
KGWO 171142Z AUTO 00000KT 3SM BR CLR 04/04 A3029 RMK AO2 T00390039
KGWO 171130Z AUTO 00000KT 1 1/2SM BR CLR 03/03 A3029 RMK AO2 T00330033
KGWO 171053Z AUTO 00000KT 9SM CLR 04/04 A3028 RMK AO2 SLP254 T00440039
KGWO 170953Z AUTO 02003KT 10SM CLR 06/05 A3027 RMK AO2 SLP250 T00560050
KGWO 170853Z AUTO 01003KT 10SM CLR 06/05 A3026 RMK AO2 RAE11 SLP247 P0000 60000 T00610050 58004
KGWO 170753Z AUTO 01003KT 10SM -RA CLR 06/05 A3027 RMK AO2 RAB48 SLP250 P0000 T00560050
KGWO 170653Z AUTO 01003KT 10SM CLR 07/06 A3027 RMK AO2 SLP251 T00670061
KGWO 170553Z AUTO 36003KT 10SM CLR 07/06 A3027 RMK AO2 SLP251 T00670061 10139 20061 402170061 58003
KGWO 170453Z AUTO 00000KT 10SM CLR 07/06 A3028 RMK AO2 SLP253 T00720061
KGWO 170353Z AUTO 02003KT 10SM CLR 08/07 A3029 RMK AO2 SLP255 T00830067
KGWO 170253Z AUTO 00000KT 10SM CLR 08/06 A3028 RMK AO2 SLP254 T00830061 51016
KGWO 170153Z AUTO 00000KT 10SM CLR 09/07 A3027 RMK AO2 SLP250 T00890072
KGWO 170053Z AUTO 36003KT 10SM CLR 12/07 A3025 RMK AO2 SLP243 T01170072
KGWO 162353Z AUTO 36004KT 10SM CLR 14/07 A3023 RMK AO2 SLP238 T01390067 10217 20139 53004
KGWO 162253Z AUTO 02006KT 10SM CLR 18/06 A3022 RMK AO2 SLP234 T01830061
KGWO 162153Z AUTO 03012G16KT 10SM CLR 21/06 A3022 RMK AO2 SLP232 T02060056
KGWO 162053Z AUTO 02013G19KT 10SM CLR 21/06 A3022 RMK AO2 SLP233 T02110061 56023
KGWO 161953Z AUTO 36012G18KT 10SM CLR 21/06 A3024 RMK AO2 SLP238 T02110056
KGWO 161853Z AUTO 35011G16KT 10SM CLR 21/06 A3026 RMK AO2 SLP244 T02060061
KGWO 161753Z AUTO 35012G15KT 10SM CLR 20/07 A3029 RMK AO2 SLP256 T02000067 10200 20083 58012
KGWO 161653Z AUTO 02008KT 10SM CLR 18/07 A3032 RMK AO2 SLP265 T01830072
KGWO 161553Z AUTO 02011KT 10SM CLR 16/08 A3033 RMK AO2 SLP269 T01610078
KGWO 161453Z AUTO 02012KT 10SM CLR 15/08 A3033 RMK AO2 SLP269 T01500083 51010
KGWO 161353Z AUTO 03009G15KT 10SM CLR 12/09 A3032 RMK AO2 SLP268 T01220089
KGWO 161253Z AUTO 36006KT 10SM CLR 09/09 A3031 RMK AO2 SLP263 T00940089
KGWO 161153Z AUTO 35003KT 10SM CLR 08/08 A3029 RMK AO2 SLP258 70002 T00830078 10139 20083 53020
KGWO 161053Z AUTO 36005KT 10SM CLR 09/08 A3027 RMK AO2 SLP250 T00940083
KGWO 160953Z AUTO 36004KT 10SM CLR 09/08 A3025 RMK AO2 SLP241 T00940078
KGWO 160853Z AUTO 01006KT 10SM CLR 11/09 A3024 RMK AO2 SLP237 T01060089 50002
KGWO 160753Z AUTO 02007KT 10SM CLR 11/09 A3024 RMK AO2 SLP238 T01110094
KGWO 160653Z AUTO 02007KT 10SM CLR 12/10 A3024 RMK AO2 SLP239 T01220100